createdAt,value
2023-08-03T00:01:08.534Z,20.69
2023-08-03T00:03:36.891Z,20.71
2023-08-03T00:06:05.062Z,20.70
2023-08-03T00:08:33.030Z,20.72
2023-08-03T00:11:02.385Z,20.73
2023-08-03T00:13:30.468Z,20.75
2023-08-03T00:15:58.587Z,20.76
2023-08-03T00:18:26.708Z,20.77
2023-08-03T00:20:54.876Z,20.78
2023-08-03T00:23:22.883Z,20.80
2023-08-03T00:25:50.914Z,20.80
2023-08-03T00:28:21.951Z,20.78
2023-08-03T00:30:50.170Z,20.75
2023-08-03T00:33:18.454Z,20.72
2023-08-03T00:35:46.578Z,20.73
2023-08-03T00:38:14.744Z,20.72
2023-08-03T00:40:43.075Z,20.73
2023-08-03T00:43:11.053Z,20.71
2023-08-03T00:45:39.160Z,20.74
2023-08-03T00:48:07.272Z,20.76
2023-08-03T00:50:35.318Z,20.77
2023-08-03T00:53:05.441Z,20.79
2023-08-03T00:55:34.834Z,20.81
2023-08-03T00:58:03.570Z,20.80
2023-08-03T01:00:31.683Z,20.83
2023-08-03T01:02:59.765Z,20.83
2023-08-03T01:05:28.431Z,20.84
2023-08-03T01:07:56.729Z,20.84
2023-08-03T01:10:26.966Z,20.86
2023-08-03T01:12:56.893Z,20.84
2023-08-03T01:15:25.130Z,20.83
2023-08-03T01:17:53.485Z,20.77
2023-08-03T01:20:23.111Z,20.77
2023-08-03T01:22:51.378Z,20.75
2023-08-03T01:25:19.598Z,20.70
2023-08-03T01:27:48.949Z,20.66
2023-08-03T01:30:16.950Z,20.68
2023-08-03T01:32:45.155Z,20.64
2023-08-03T01:35:13.992Z,20.61
2023-08-03T01:37:42.003Z,20.64
2023-08-03T01:40:13.347Z,20.62
2023-08-03T01:42:41.686Z,20.62
2023-08-03T01:45:10.528Z,20.63
2023-08-03T01:47:38.798Z,20.62
2023-08-03T01:50:07.747Z,20.53
2023-08-03T01:52:36.372Z,20.51
2023-08-03T01:55:04.606Z,20.47
2023-08-03T01:57:33.420Z,20.46
2023-08-03T02:00:01.531Z,20.43
2023-08-03T02:02:29.722Z,20.40
2023-08-03T02:04:57.998Z,20.37
2023-08-03T02:07:55.520Z,20.33
2023-08-03T02:10:25.321Z,20.22
2023-08-03T02:12:53.448Z,20.22
2023-08-03T02:15:21.503Z,20.19
2023-08-03T02:17:49.569Z,20.21
2023-08-03T02:20:17.674Z,20.20
2023-08-03T02:22:46.446Z,20.19
2023-08-03T02:25:14.561Z,20.19
2023-08-03T02:27:42.639Z,20.17
2023-08-03T02:30:11.820Z,20.12
2023-08-03T02:32:40.393Z,20.12
2023-08-03T02:35:09.155Z,20.10
2023-08-03T02:37:37.431Z,20.10
2023-08-03T02:40:09.930Z,20.10
2023-08-03T02:42:38.421Z,20.11
2023-08-03T02:45:08.321Z,20.10
2023-08-03T02:47:36.986Z,20.11
2023-08-03T02:50:05.310Z,20.11
2023-08-03T02:52:33.341Z,20.11
2023-08-03T02:55:01.515Z,20.11
2023-08-03T02:57:29.604Z,20.13
2023-08-03T02:59:57.850Z,20.13
2023-08-03T03:02:26.602Z,20.14
2023-08-03T03:04:55.413Z,20.16
2023-08-03T03:07:24.617Z,20.16
2023-08-03T03:09:53.500Z,20.14
2023-08-03T03:12:21.509Z,20.15
2023-08-03T03:14:50.360Z,20.14
2023-08-03T03:17:18.641Z,20.14
2023-08-03T03:19:46.848Z,20.12
2023-08-03T03:22:15.084Z,20.10
2023-08-03T03:24:43.471Z,20.08
2023-08-03T03:27:11.634Z,20.05
2023-08-03T03:29:45.747Z,20.04
2023-08-03T03:32:14.773Z,20.03
2023-08-03T03:34:42.789Z,19.99
2023-08-03T03:37:11.073Z,19.97
2023-08-03T03:39:39.225Z,19.96
2023-08-03T03:42:07.744Z,19.94
2023-08-03T03:44:36.196Z,19.93
2023-08-03T03:47:05.221Z,19.95
2023-08-03T03:49:33.703Z,19.96
2023-08-03T03:52:03.306Z,19.97
2023-08-03T03:54:32.599Z,19.99
2023-08-03T03:57:02.206Z,20.03
2023-08-03T03:59:31.852Z,20.05
2023-08-03T04:01:59.884Z,20.08
2023-08-03T04:04:30.476Z,20.13
2023-08-03T04:07:00.367Z,20.19
2023-08-03T04:09:29.620Z,20.24
2023-08-03T04:11:57.650Z,20.27
2023-08-03T04:14:25.613Z,20.32
2023-08-03T04:16:54.136Z,20.33
2023-08-03T04:19:22.729Z,20.34
2023-08-03T04:21:50.910Z,20.36
2023-08-03T04:24:19.083Z,20.38
2023-08-03T04:26:48.487Z,20.39
2023-08-03T04:29:22.075Z,20.39
2023-08-03T04:31:51.557Z,20.40
2023-08-03T04:34:20.022Z,20.41
2023-08-03T04:36:49.248Z,20.43
2023-08-03T04:39:17.520Z,20.43
2023-08-03T04:41:46.132Z,20.44
2023-08-03T04:44:16.531Z,20.44
2023-08-03T04:46:44.549Z,20.45
2023-08-03T04:49:14.779Z,20.48
2023-08-03T04:51:49.042Z,20.51
2023-08-03T04:54:20.818Z,20.54
2023-08-03T04:56:48.906Z,20.56
2023-08-03T04:59:17.752Z,20.60
2023-08-03T05:01:46.006Z,20.63
2023-08-03T05:04:14.375Z,20.68
2023-08-03T05:06:42.856Z,20.74
2023-08-03T05:09:10.995Z,20.78
2023-08-03T05:11:39.002Z,20.85
2023-08-03T05:14:07.219Z,20.90
2023-08-03T05:16:35.294Z,20.94
2023-08-03T05:19:03.457Z,20.98
2023-08-03T05:21:31.472Z,21.01
2023-08-03T05:23:59.588Z,21.04
2023-08-03T05:26:27.795Z,21.07
2023-08-03T05:28:56.660Z,21.11
2023-08-03T05:31:24.835Z,21.13
2023-08-03T05:33:53.200Z,21.15
2023-08-03T05:36:21.377Z,21.16
2023-08-03T05:38:54.070Z,21.18
2023-08-03T05:41:24.178Z,21.19
2023-08-03T05:43:52.354Z,21.20
2023-08-03T05:46:21.712Z,21.24
2023-08-03T05:48:51.356Z,21.28
2023-08-03T05:51:29.251Z,21.31
2023-08-03T05:53:58.046Z,21.31
2023-08-03T05:56:26.211Z,21.31
2023-08-03T05:58:54.426Z,21.33
2023-08-03T06:01:24.567Z,21.39
2023-08-03T06:03:56.992Z,21.44
2023-08-03T06:06:25.200Z,21.51
2023-08-03T06:08:55.051Z,21.62
2023-08-03T06:11:27.258Z,21.71
2023-08-03T06:13:56.470Z,21.79
2023-08-03T06:16:26.200Z,21.83
2023-08-03T06:18:57.792Z,21.89
2023-08-03T06:21:28.139Z,21.90
2023-08-03T06:23:59.207Z,21.96
2023-08-03T06:26:31.147Z,22.19
2023-08-03T06:29:02.029Z,22.67
2023-08-03T06:31:43.181Z,23.26
2023-08-03T06:34:15.840Z,23.99
2023-08-03T06:36:45.696Z,24.57
2023-08-03T06:39:14.202Z,25.04
2023-08-03T06:41:43.041Z,25.35
2023-08-03T06:44:15.615Z,25.43
2023-08-03T06:46:43.939Z,25.36
2023-08-03T06:49:13.226Z,25.18
2023-08-03T06:51:41.581Z,25.04
2023-08-03T06:54:11.955Z,24.88
2023-08-03T06:56:40.497Z,24.73
2023-08-03T06:59:09.279Z,24.54
2023-08-03T07:01:38.435Z,24.43
2023-08-03T07:04:07.106Z,24.38
2023-08-03T07:06:35.578Z,24.34
2023-08-03T07:09:04.262Z,24.29
2023-08-03T07:11:32.506Z,24.20
2023-08-03T07:14:01.531Z,24.13
2023-08-03T07:16:30.339Z,24.06
2023-08-03T07:18:58.726Z,23.97
2023-08-03T07:21:26.764Z,23.89
2023-08-03T07:23:54.952Z,23.82
2023-08-03T07:26:24.356Z,23.75
2023-08-03T07:28:52.614Z,23.67
2023-08-03T07:31:20.927Z,23.62
2023-08-03T07:33:49.879Z,23.56
2023-08-03T07:36:21.381Z,23.52
2023-08-03T07:38:50.046Z,23.46
2023-08-03T07:41:21.063Z,23.45
2023-08-03T07:43:53.659Z,23.42
2023-08-03T07:46:22.050Z,23.39
2023-08-03T07:48:50.669Z,23.40
2023-08-03T07:51:21.601Z,23.41
2023-08-03T07:53:51.177Z,23.41
2023-08-03T07:56:22.523Z,23.47
2023-08-03T07:58:52.426Z,23.62
2023-08-03T08:01:23.967Z,23.78
2023-08-03T08:03:52.571Z,23.93
2023-08-03T08:06:22.039Z,24.07
2023-08-03T08:08:52.361Z,24.18
2023-08-03T08:11:21.587Z,24.29
2023-08-03T08:13:49.903Z,24.42
2023-08-03T08:16:18.623Z,24.52
2023-08-03T08:18:47.028Z,24.55
2023-08-03T08:21:15.386Z,24.61
2023-08-03T08:23:43.969Z,24.64
2023-08-03T08:26:17.443Z,24.64
2023-08-03T08:29:01.906Z,24.67
2023-08-03T08:34:04.746Z,24.79
2023-08-03T08:36:33.141Z,24.91
2023-08-03T08:39:01.353Z,24.96
2023-08-03T08:41:29.737Z,25.01
2023-08-03T08:43:58.010Z,25.04
2023-08-03T08:46:26.121Z,25.08
2023-08-03T08:48:54.707Z,25.15
2023-08-03T09:01:28.254Z,25.24
2023-08-03T09:06:28.554Z,25.59
2023-08-03T09:08:59.568Z,25.73
2023-08-03T09:11:38.903Z,25.81
2023-08-03T09:14:12.332Z,25.87
2023-08-03T09:16:40.528Z,25.91
2023-08-03T09:19:08.673Z,26.00
2023-08-03T09:29:24.832Z,26.43
2023-08-03T09:34:56.367Z,26.24
2023-08-03T09:40:09.588Z,26.04
2023-08-03T09:42:42.295Z,25.97
2023-08-03T09:47:48.433Z,25.86
2023-08-03T09:50:21.623Z,25.90
2023-08-03T09:52:53.631Z,25.98
2023-08-03T09:55:29.424Z,26.01
2023-08-03T09:58:07.492Z,26.01
2023-08-03T10:00:37.430Z,26.00
2023-08-03T10:03:16.457Z,26.09
2023-08-03T10:05:58.937Z,26.16
2023-08-03T10:08:47.013Z,26.15
2023-08-03T10:11:15.579Z,26.14
2023-08-03T10:13:48.384Z,26.15
2023-08-03T10:16:18.078Z,26.13
2023-08-03T10:21:19.174Z,26.11
2023-08-03T10:24:10.130Z,26.12
2023-08-03T10:26:39.590Z,26.12
2023-08-03T10:29:07.740Z,26.26
2023-08-03T10:31:53.765Z,26.45
2023-08-03T10:34:29.283Z,26.58
2023-08-03T10:37:02.414Z,26.63
2023-08-03T10:39:48.468Z,26.68
2023-08-03T10:42:25.832Z,26.81
2023-08-03T10:44:55.198Z,26.95
2023-08-03T10:47:29.106Z,27.07
2023-08-03T10:49:59.236Z,27.12
2023-08-03T10:52:31.613Z,27.09
2023-08-03T10:55:00.775Z,27.06
2023-08-03T10:57:30.869Z,27.02
2023-08-03T11:00:01.009Z,27.00
2023-08-03T11:02:31.738Z,27.00
2023-08-03T11:05:08.479Z,27.02
2023-08-03T11:07:39.502Z,27.04
2023-08-03T11:10:11.348Z,27.08
2023-08-03T11:12:40.983Z,27.11
2023-08-03T11:15:09.716Z,27.13
2023-08-03T11:17:38.944Z,27.16
2023-08-03T11:20:10.210Z,27.21
2023-08-03T11:22:38.366Z,27.21
2023-08-03T11:25:10.643Z,27.16
2023-08-03T11:27:42.980Z,27.11
2023-08-03T11:30:11.454Z,27.04
2023-08-03T11:32:41.479Z,27.01
2023-08-03T11:35:12.124Z,27.03
2023-08-03T11:37:41.113Z,27.05
2023-08-03T11:40:10.590Z,27.07
2023-08-03T11:42:40.992Z,27.11
2023-08-03T11:45:10.393Z,27.17
2023-08-03T11:47:45.950Z,27.22
2023-08-03T11:50:18.048Z,27.31
2023-08-03T11:52:46.704Z,27.37
2023-08-03T11:55:34.244Z,27.43
2023-08-03T11:58:12.827Z,27.39
2023-08-03T12:00:44.150Z,27.35
2023-08-03T12:03:20.229Z,27.32
2023-08-03T12:06:07.046Z,27.27
2023-08-03T12:08:50.824Z,27.20
2023-08-03T12:11:24.713Z,27.13
2023-08-03T12:13:53.840Z,27.09
2023-08-03T12:16:21.892Z,27.06
2023-08-03T12:18:50.834Z,27.02
2023-08-03T12:21:19.317Z,27.02
2023-08-03T12:23:47.720Z,27.06
2023-08-03T12:26:15.767Z,27.09
2023-08-03T12:28:43.887Z,27.12
2023-08-03T12:31:11.970Z,27.16
2023-08-03T12:33:40.101Z,27.21
2023-08-03T12:36:08.399Z,27.27
2023-08-03T12:38:36.392Z,27.29
2023-08-03T12:41:04.957Z,27.31
2023-08-03T12:43:33.515Z,27.31
2023-08-03T12:46:01.485Z,27.31
2023-08-03T12:48:29.827Z,27.33
2023-08-03T12:50:58.151Z,27.32
2023-08-03T12:53:27.482Z,27.31
2023-08-03T12:55:56.115Z,27.30
2023-08-03T12:58:24.329Z,27.28
2023-08-03T13:00:52.487Z,27.23
2023-08-03T13:03:20.605Z,27.22
2023-08-03T13:05:49.065Z,27.22
2023-08-03T13:08:18.624Z,27.24
2023-08-03T13:10:47.456Z,27.21
2023-08-03T13:13:18.553Z,27.20
2023-08-03T13:15:49.936Z,27.18
2023-08-03T13:18:18.607Z,27.14
2023-08-03T13:20:49.391Z,27.07
2023-08-03T13:23:17.963Z,27.01
2023-08-03T13:25:46.237Z,27.00
2023-08-03T13:28:14.465Z,26.97
2023-08-03T13:30:43.006Z,26.94
2023-08-03T13:33:11.204Z,26.91
2023-08-03T13:35:39.398Z,26.91
2023-08-03T13:38:07.490Z,26.90
2023-08-03T13:40:35.521Z,26.84
2023-08-03T13:43:03.554Z,26.79
2023-08-03T13:45:31.892Z,26.75
2023-08-03T13:48:00.254Z,26.72
2023-08-03T13:50:28.686Z,26.69
2023-08-03T13:52:56.771Z,26.71
2023-08-03T13:55:25.000Z,26.73
2023-08-03T14:00:24.256Z,26.78
2023-08-03T14:02:52.648Z,26.82
2023-08-03T14:07:52.143Z,26.92
2023-08-03T14:17:55.284Z,26.93
2023-08-03T14:22:54.328Z,26.92
2023-08-03T14:27:53.796Z,26.93
2023-08-03T14:30:23.138Z,26.94
2023-08-03T14:32:51.709Z,26.94
2023-08-03T14:37:51.048Z,26.95
2023-08-03T14:40:19.101Z,26.96
2023-08-03T14:42:55.981Z,26.99
2023-08-03T14:45:35.226Z,27.02
2023-08-03T14:48:07.232Z,27.01
2023-08-03T14:50:38.283Z,26.96
2023-08-03T14:53:06.545Z,26.88
2023-08-03T14:55:34.799Z,26.77
2023-08-03T14:58:05.198Z,26.66
2023-08-03T15:00:33.255Z,26.56
2023-08-03T15:03:01.559Z,26.47
2023-08-03T15:05:31.122Z,26.38
2023-08-03T15:07:59.331Z,26.32
2023-08-03T15:10:27.520Z,26.26
2023-08-03T15:12:57.315Z,26.19
2023-08-03T15:17:59.081Z,26.08
2023-08-03T15:20:37.158Z,26.00
2023-08-03T15:23:07.538Z,25.90
2023-08-03T15:25:36.828Z,25.81
2023-08-03T15:28:10.918Z,25.71
2023-08-03T15:35:43.562Z,25.16
2023-08-03T15:38:14.843Z,24.94
2023-08-03T15:40:59.712Z,24.74
2023-08-03T15:43:33.888Z,24.54
2023-08-03T15:46:08.857Z,24.37
2023-08-03T15:49:02.291Z,24.23
2023-08-03T15:51:32.276Z,24.11
2023-08-03T15:54:07.501Z,24.00
2023-08-03T15:56:39.732Z,23.91
2023-08-03T15:59:08.009Z,23.84
2023-08-03T16:01:36.288Z,23.80
2023-08-03T16:04:04.762Z,23.78
2023-08-03T16:06:32.881Z,23.78
2023-08-03T16:09:00.851Z,23.78
2023-08-03T16:11:51.553Z,23.80
2023-08-03T16:14:16.961Z,23.82
2023-08-03T16:16:45.349Z,23.86
2023-08-03T16:19:14.920Z,23.88
2023-08-03T16:21:43.915Z,23.92
2023-08-03T16:24:12.239Z,23.93
2023-08-03T16:26:40.374Z,23.94
2023-08-03T16:29:08.669Z,23.94
2023-08-03T16:31:39.393Z,23.94
2023-08-03T16:34:12.434Z,23.93
2023-08-03T16:36:42.674Z,23.90
2023-08-03T16:39:11.260Z,23.87
2023-08-03T16:41:39.569Z,23.86
2023-08-03T16:44:07.687Z,23.85
2023-08-03T16:46:36.027Z,23.84
2023-08-03T16:49:05.332Z,23.83
2023-08-03T16:51:33.448Z,23.82
2023-08-03T16:54:01.500Z,23.82
2023-08-03T16:56:29.524Z,23.82
2023-08-03T16:58:57.628Z,23.79
2023-08-03T17:01:25.904Z,23.77
2023-08-03T17:03:54.003Z,23.76
2023-08-03T17:06:24.799Z,23.75
2023-08-03T17:08:52.937Z,23.72
2023-08-03T17:11:20.920Z,23.72
2023-08-03T17:13:48.898Z,23.70
2023-08-03T17:16:17.183Z,23.64
2023-08-03T17:18:45.241Z,23.57
2023-08-03T17:21:13.260Z,23.53
2023-08-03T17:23:41.296Z,23.47
2023-08-03T17:26:09.430Z,23.42
2023-08-03T17:28:37.627Z,23.36
2023-08-03T17:31:05.864Z,23.29
2023-08-03T17:33:34.117Z,23.22
2023-08-03T17:36:12.350Z,23.11
2023-08-03T17:38:40.726Z,23.01
2023-08-03T17:41:08.958Z,22.94
2023-08-03T17:43:37.099Z,22.87
2023-08-03T17:46:09.143Z,22.80
2023-08-03T17:48:40.333Z,22.72
2023-08-03T17:51:11.202Z,22.66
2023-08-03T17:53:45.928Z,22.61
2023-08-03T17:56:16.422Z,22.58
2023-08-03T17:58:46.701Z,22.52
2023-08-03T18:01:24.275Z,22.46
2023-08-03T18:03:56.479Z,22.39
2023-08-03T18:06:26.139Z,22.34
2023-08-03T18:08:56.838Z,22.29
2023-08-03T18:11:25.495Z,22.25
2023-08-03T18:13:54.718Z,22.22
2023-08-03T18:16:22.966Z,22.17
2023-08-03T18:18:52.344Z,22.14
2023-08-03T18:21:24.675Z,22.10
2023-08-03T18:23:59.404Z,22.04
2023-08-03T18:26:28.150Z,21.98
2023-08-03T18:28:56.849Z,21.91
2023-08-03T18:31:26.060Z,21.85
2023-08-03T18:33:54.379Z,21.77
2023-08-03T18:36:22.739Z,21.71
2023-08-03T18:38:52.067Z,21.64
2023-08-03T18:41:22.675Z,21.57
2023-08-03T18:43:52.861Z,21.50
2023-08-03T18:46:22.820Z,21.41
2023-08-03T18:48:51.232Z,21.32
2023-08-03T18:51:21.640Z,21.23
2023-08-03T18:53:52.689Z,21.16
2023-08-03T18:56:25.578Z,21.09
2023-08-03T18:58:59.193Z,21.01
2023-08-03T19:01:30.244Z,20.88
2023-08-03T19:04:00.802Z,20.78
2023-08-03T19:06:29.620Z,20.68
2023-08-03T19:08:58.028Z,20.59
2023-08-03T19:11:26.108Z,20.50
2023-08-03T19:13:54.254Z,20.39
2023-08-03T19:16:28.125Z,20.31
2023-08-03T19:18:56.846Z,20.19
2023-08-03T19:21:25.115Z,20.09
2023-08-03T19:23:53.128Z,19.99
2023-08-03T19:26:21.471Z,19.91
2023-08-03T19:28:49.534Z,19.84
2023-08-03T19:31:18.813Z,19.77
2023-08-03T19:33:47.106Z,19.69
2023-08-03T19:36:15.390Z,19.59
2023-08-03T19:38:43.864Z,19.53
2023-08-03T19:41:11.898Z,19.48
2023-08-03T19:43:39.854Z,19.46
2023-08-03T19:46:11.500Z,19.44
2023-08-03T19:48:39.870Z,19.41
2023-08-03T19:53:40.965Z,19.34
2023-08-03T20:06:15.263Z,19.12
2023-08-03T20:11:14.944Z,19.05
2023-08-03T20:21:33.958Z,18.92
2023-08-03T20:24:02.008Z,18.87
2023-08-03T20:29:06.256Z,18.81
2023-08-03T20:31:40.432Z,18.77
2023-08-03T20:34:12.199Z,18.76
2023-08-03T20:36:45.928Z,18.74
2023-08-03T20:49:53.518Z,18.75
2023-08-03T20:52:24.888Z,18.77
2023-08-03T20:54:59.074Z,18.77
2023-08-03T20:57:42.226Z,18.77
2023-08-03T21:00:11.727Z,18.78
2023-08-03T21:02:43.504Z,18.81
2023-08-03T21:05:22.835Z,18.83
2023-08-03T21:07:52.945Z,18.85
2023-08-03T21:12:57.957Z,18.88
2023-08-03T21:15:29.198Z,18.91
2023-08-03T21:17:59.343Z,18.93
2023-08-03T21:20:33.763Z,18.95
2023-08-03T21:23:02.836Z,18.95
2023-08-03T21:25:33.387Z,18.96
2023-08-03T21:28:01.450Z,18.97
2023-08-03T21:30:29.681Z,18.97
2023-08-03T21:32:57.704Z,18.97
2023-08-03T21:35:25.718Z,18.98
2023-08-03T21:37:53.752Z,18.98
2023-08-03T21:40:21.742Z,18.97
2023-08-03T21:42:49.745Z,18.95
2023-08-03T21:45:17.825Z,18.92
2023-08-03T21:47:46.082Z,18.90
2023-08-03T21:50:14.095Z,18.90
2023-08-03T21:52:42.325Z,18.91
2023-08-03T21:55:10.994Z,18.91
2023-08-03T21:57:39.127Z,18.92
2023-08-03T22:00:11.057Z,18.93
2023-08-03T22:02:42.244Z,18.93
2023-08-03T22:05:12.521Z,18.94
2023-08-03T22:07:41.055Z,18.96
2023-08-03T22:10:10.883Z,18.97
2023-08-03T22:12:39.020Z,18.96
2023-08-03T22:15:07.573Z,18.97
2023-08-03T22:17:36.345Z,18.98
2023-08-03T22:20:05.276Z,18.98
2023-08-03T22:22:33.450Z,18.98
2023-08-03T22:25:01.710Z,18.98
2023-08-03T22:27:29.853Z,18.98
2023-08-03T22:29:58.893Z,19.00
2023-08-03T22:32:27.301Z,19.01
2023-08-03T22:34:57.592Z,19.02
2023-08-03T22:37:28.471Z,19.03
2023-08-03T22:39:56.806Z,19.01
2023-08-03T22:42:24.990Z,19.00
2023-08-03T22:44:53.398Z,18.99
2023-08-03T22:47:21.750Z,18.98
2023-08-03T22:49:49.851Z,19.00
2023-08-03T22:52:17.898Z,19.01
2023-08-03T22:54:46.542Z,19.02
2023-08-03T22:57:14.498Z,19.04
2023-08-03T22:59:42.544Z,19.04
2023-08-03T23:02:10.502Z,19.04
2023-08-03T23:04:38.651Z,19.03
2023-08-03T23:07:06.860Z,19.03
2023-08-03T23:09:35.215Z,19.00
2023-08-03T23:12:03.569Z,18.98
2023-08-03T23:14:31.844Z,18.97
2023-08-03T23:17:00.120Z,18.95
2023-08-03T23:19:28.239Z,18.94
2023-08-03T23:21:58.437Z,18.93
2023-08-03T23:24:27.617Z,18.91
2023-08-03T23:26:56.094Z,18.92
2023-08-03T23:29:24.085Z,18.92
2023-08-03T23:31:52.193Z,18.91
2023-08-03T23:34:20.292Z,18.90
2023-08-03T23:36:48.289Z,18.91
2023-08-03T23:39:16.548Z,18.92
2023-08-03T23:41:45.152Z,18.92
2023-08-03T23:44:13.661Z,18.91
2023-08-03T23:46:41.789Z,18.91
2023-08-03T23:49:09.741Z,18.91
2023-08-03T23:51:37.924Z,18.91
2023-08-03T23:54:06.195Z,18.92
2023-08-03T23:56:35.126Z,18.91
2023-08-03T23:59:03.159Z,18.89
